createdAt,value
2019-01-22T00:00:33.311Z,22.40
2019-01-22T00:03:00.013Z,25.50
2019-01-22T00:05:26.755Z,22.90
2019-01-22T00:07:53.271Z,23.33
2019-01-22T00:10:19.823Z,21.20
2019-01-22T00:12:46.672Z,21.27
2019-01-22T00:15:13.121Z,20.50
2019-01-22T00:17:40.436Z,21.37
2019-01-22T00:20:08.447Z,20.30
2019-01-22T00:22:35.638Z,19.77
2019-01-22T00:25:04.337Z,20.37
2019-01-22T00:27:30.848Z,19.67
2019-01-22T00:29:57.295Z,19.13
2019-01-22T00:32:24.239Z,19.70
2019-01-22T00:34:50.691Z,19.00
2019-01-22T00:37:17.436Z,18.07
2019-01-22T00:39:43.853Z,17.60
2019-01-22T00:42:10.304Z,19.13
2019-01-22T00:44:36.788Z,17.40
2019-01-22T00:47:03.195Z,17.57
2019-01-22T00:49:30.207Z,17.30
2019-01-22T00:51:56.651Z,15.33
2019-01-22T00:54:23.063Z,17.17
2019-01-22T00:56:49.528Z,17.47
2019-01-22T00:59:15.948Z,16.13
2019-01-22T01:01:42.355Z,16.13
2019-01-22T01:04:08.799Z,15.07
2019-01-22T01:06:36.567Z,15.70
2019-01-22T01:09:05.250Z,15.17
2019-01-22T01:11:31.713Z,15.30
2019-01-22T01:13:58.523Z,14.20
2019-01-22T01:16:25.009Z,15.33
2019-01-22T01:18:51.702Z,14.90
2019-01-22T01:21:18.565Z,14.50
2019-01-22T01:23:45.408Z,14.50
2019-01-22T01:26:11.822Z,13.87
2019-01-22T01:28:38.428Z,13.13
2019-01-22T01:31:04.934Z,13.20
2019-01-22T01:33:31.347Z,13.73
2019-01-22T01:35:58.043Z,13.00
2019-01-22T01:38:24.493Z,12.53
2019-01-22T01:40:51.603Z,12.63
2019-01-22T01:43:18.057Z,13.87
2019-01-22T01:45:44.502Z,12.70
2019-01-22T01:48:10.966Z,12.13
2019-01-22T01:50:37.380Z,12.20
2019-01-22T01:53:03.796Z,12.43
2019-01-22T01:55:30.544Z,11.87
2019-01-22T01:57:57.996Z,13.40
2019-01-22T02:00:24.439Z,11.80
2019-01-22T02:02:51.166Z,12.40
2019-01-22T02:05:18.012Z,11.70
2019-01-22T02:07:44.568Z,12.33
2019-01-22T02:10:13.228Z,12.17
2019-01-22T02:12:41.543Z,11.20
2019-01-22T02:15:13.064Z,12.40
2019-01-22T02:17:41.403Z,11.93
2019-01-22T02:20:10.117Z,12.30
2019-01-22T02:22:41.295Z,12.00
2019-01-22T02:25:12.911Z,10.63
2019-01-22T02:27:47.436Z,11.87
2019-01-22T02:30:25.031Z,10.77
2019-01-22T02:32:59.652Z,10.37
2019-01-22T02:35:28.558Z,9.47
2019-01-22T02:38:13.760Z,9.77
2019-01-22T02:40:42.080Z,8.60
2019-01-22T02:43:10.784Z,10.47
2019-01-22T02:45:42.433Z,9.60
2019-01-22T02:48:16.951Z,10.00
2019-01-22T02:50:54.300Z,9.47
2019-01-22T02:53:25.793Z,9.83
2019-01-22T02:56:10.816Z,9.40
2019-01-22T02:58:39.166Z,9.17
2019-01-22T03:01:10.332Z,9.20
2019-01-22T03:03:38.692Z,9.27
2019-01-22T03:06:16.074Z,8.93
2019-01-22T03:08:44.734Z,9.77
2019-01-22T03:11:22.118Z,9.33
2019-01-22T03:13:59.819Z,8.83
2019-01-22T03:16:35.055Z,8.87
2019-01-22T03:19:12.501Z,8.87
2019-01-22T03:21:40.847Z,8.23
2019-01-22T03:24:24.332Z,8.77
2019-01-22T03:26:55.689Z,8.17
2019-01-22T03:29:27.269Z,8.63
2019-01-22T03:32:04.733Z,8.53
2019-01-22T03:34:35.900Z,8.63
2019-01-22T03:37:04.579Z,8.30
2019-01-22T03:39:32.929Z,8.60
2019-01-22T03:42:01.243Z,8.43
2019-01-22T03:44:29.608Z,7.70
2019-01-22T03:47:14.468Z,7.03
2019-01-22T03:49:45.890Z,8.17
2019-01-22T03:52:14.504Z,7.33
2019-01-22T03:54:54.966Z,7.60
2019-01-22T03:57:23.324Z,7.50
2019-01-22T03:59:50.082Z,7.77
2019-01-22T04:02:17.233Z,7.80
2019-01-22T04:04:43.977Z,7.63
2019-01-22T04:07:10.403Z,7.30
2019-01-22T04:09:36.909Z,7.80
2019-01-22T04:12:03.361Z,7.47
2019-01-22T04:14:29.767Z,7.43
2019-01-22T04:16:56.545Z,7.40
2019-01-22T04:19:22.993Z,8.00
2019-01-22T04:21:49.416Z,7.43
2019-01-22T04:24:17.832Z,8.43
2019-01-22T04:26:47.183Z,7.93
2019-01-22T04:29:15.531Z,8.00
2019-01-22T04:31:44.142Z,7.47
2019-01-22T04:34:15.901Z,6.93
2019-01-22T04:36:44.479Z,8.17
2019-01-22T04:39:19.469Z,8.07
2019-01-22T04:41:47.783Z,6.77
2019-01-22T04:44:19.131Z,7.17
2019-01-22T04:46:53.283Z,7.63
2019-01-22T04:49:39.169Z,6.90
2019-01-22T04:52:10.523Z,7.27
2019-01-22T04:54:38.837Z,7.87
2019-01-22T04:57:07.152Z,6.63
2019-01-22T04:59:48.231Z,7.13
2019-01-22T05:02:19.559Z,6.47
2019-01-22T05:04:48.247Z,7.23
2019-01-22T05:07:16.833Z,7.27
2019-01-22T05:09:59.034Z,7.40
2019-01-22T05:12:33.489Z,7.50
2019-01-22T05:15:01.836Z,7.33
2019-01-22T05:17:36.215Z,7.40
2019-01-22T05:20:07.394Z,8.13
2019-01-22T05:22:35.744Z,6.73
2019-01-22T05:25:10.139Z,7.23
2019-01-22T05:27:41.750Z,7.63
2019-01-22T05:30:11.573Z,7.40
2019-01-22T05:32:54.932Z,7.00
2019-01-22T05:35:40.180Z,7.23
2019-01-22T05:38:11.603Z,7.27
2019-01-22T05:40:56.479Z,8.40
2019-01-22T05:43:41.603Z,7.57
2019-01-22T05:46:09.936Z,7.53
2019-01-22T05:48:38.704Z,7.30
2019-01-22T05:51:07.052Z,7.00
2019-01-22T05:53:53.360Z,7.43
2019-01-22T05:56:24.729Z,7.20
2019-01-22T05:59:05.167Z,7.83
2019-01-22T06:01:33.256Z,6.93
2019-01-22T06:04:04.912Z,7.50
2019-01-22T06:06:36.567Z,6.90
2019-01-22T06:09:08.219Z,7.27
2019-01-22T06:11:45.520Z,6.90
2019-01-22T06:14:19.996Z,6.90
2019-01-22T06:16:51.144Z,7.47
2019-01-22T06:19:28.868Z,6.83
2019-01-22T06:21:57.552Z,7.07
2019-01-22T06:24:41.087Z,7.23
2019-01-22T06:27:15.471Z,7.00
2019-01-22T06:29:49.823Z,6.80
2019-01-22T06:32:21.191Z,6.67
2019-01-22T06:34:49.499Z,6.83
2019-01-22T06:37:21.100Z,6.90
2019-01-22T06:39:49.468Z,6.77
2019-01-22T06:42:21.548Z,7.07
2019-01-22T06:44:53.200Z,7.07
2019-01-22T06:47:24.852Z,6.07
2019-01-22T06:49:56.343Z,7.37
2019-01-22T06:52:24.655Z,6.80
2019-01-22T06:54:56.080Z,7.33
2019-01-22T06:57:39.759Z,6.87
2019-01-22T07:00:24.649Z,7.73
2019-01-22T07:02:52.959Z,7.70
2019-01-22T07:05:21.524Z,7.63
2019-01-22T07:07:52.627Z,6.43
2019-01-22T07:10:27.097Z,7.70
2019-01-22T07:13:01.459Z,7.23
2019-01-22T07:15:30.151Z,7.20
2019-01-22T07:18:01.500Z,7.60
2019-01-22T07:20:29.832Z,6.90
2019-01-22T07:23:07.360Z,6.73
2019-01-22T07:25:35.686Z,6.67
2019-01-22T07:28:15.971Z,7.43
2019-01-22T07:30:44.283Z,7.87
2019-01-22T07:33:12.965Z,7.63
2019-01-22T07:35:41.291Z,7.07
2019-01-22T07:38:18.696Z,5.70
2019-01-22T07:40:47.311Z,7.20
2019-01-22T07:43:15.657Z,6.50
2019-01-22T07:45:53.290Z,6.97
2019-01-22T07:48:21.639Z,8.00
2019-01-22T07:50:59.175Z,7.13
2019-01-22T07:53:27.525Z,8.10
2019-01-22T07:55:55.831Z,7.47
2019-01-22T07:58:26.991Z,7.37
2019-01-22T08:00:58.324Z,7.33
2019-01-22T08:03:45.311Z,6.70
2019-01-22T08:06:13.331Z,8.70
2019-01-22T08:08:41.692Z,7.07
2019-01-22T08:11:19.251Z,7.03
2019-01-22T08:13:47.608Z,8.00
2019-01-22T08:16:24.839Z,7.47
2019-01-22T08:18:53.500Z,7.17
2019-01-22T08:21:28.125Z,6.93
2019-01-22T08:23:56.476Z,7.10
2019-01-22T08:26:27.847Z,6.97
2019-01-22T08:28:59.203Z,6.77
2019-01-22T08:31:44.210Z,6.93
2019-01-22T08:34:12.520Z,7.13
2019-01-22T08:36:40.836Z,8.20
2019-01-22T08:39:25.695Z,7.17
2019-01-22T08:41:57.115Z,7.70
2019-01-22T08:44:42.420Z,7.27
2019-01-22T08:47:13.758Z,8.13
2019-01-22T08:49:51.283Z,7.20
2019-01-22T08:52:19.640Z,7.50
2019-01-22T08:54:54.019Z,8.23
2019-01-22T08:57:28.664Z,7.93
2019-01-22T08:59:57.349Z,8.37
2019-01-22T09:02:28.783Z,8.20
2019-01-22T09:05:06.031Z,8.03
2019-01-22T09:07:43.480Z,8.80
2019-01-22T09:10:11.848Z,7.57
2019-01-22T09:12:40.163Z,8.20
2019-01-22T09:15:08.835Z,8.10
2019-01-22T09:17:37.250Z,7.73
2019-01-22T09:20:08.991Z,10.33
2019-01-22T09:22:37.631Z,8.63
2019-01-22T09:25:15.199Z,10.07
2019-01-22T09:27:43.807Z,8.93
2019-01-22T09:30:27.611Z,9.80
2019-01-22T09:33:01.867Z,7.87
2019-01-22T09:35:46.782Z,9.17
2019-01-22T09:38:13.243Z,16.90
2019-01-22T09:40:39.659Z,18.17
2019-01-22T09:43:06.075Z,16.53
2019-01-22T09:45:32.523Z,14.43
2019-01-22T09:47:58.938Z,17.97
2019-01-22T09:50:25.348Z,19.90
2019-01-22T09:52:51.832Z,17.90
2019-01-22T09:55:22.377Z,20.13
2019-01-22T09:57:46.875Z,10.43
2019-01-22T10:00:15.451Z,12.00
2019-01-22T10:02:41.902Z,18.47
2019-01-22T10:05:08.327Z,16.10
2019-01-22T10:07:35.055Z,14.63
2019-01-22T10:10:01.798Z,15.90
2019-01-22T10:12:28.211Z,11.93
2019-01-22T10:14:54.622Z,11.80
2019-01-22T10:17:21.073Z,16.77
2019-01-22T10:19:47.488Z,18.27
2019-01-22T10:22:13.904Z,16.50
2019-01-22T10:24:40.356Z,11.83
2019-01-22T10:27:06.763Z,13.23
2019-01-22T10:29:33.203Z,18.70
2019-01-22T10:31:59.622Z,18.93
2019-01-22T10:34:26.027Z,13.07
2019-01-22T10:36:52.756Z,14.97
2019-01-22T10:39:19.407Z,10.23
2019-01-22T10:41:45.819Z,15.43
2019-01-22T10:44:12.267Z,14.50
2019-01-22T10:46:38.676Z,12.70
2019-01-22T10:49:05.128Z,9.83
2019-01-22T10:51:31.543Z,12.43
2019-01-22T10:53:58.295Z,14.63
2019-01-22T10:56:24.761Z,11.87
2019-01-22T10:58:51.173Z,12.47
2019-01-22T11:01:17.588Z,12.53
2019-01-22T11:03:44.035Z,12.30
2019-01-22T11:06:10.443Z,11.07
2019-01-22T11:08:36.888Z,11.13
2019-01-22T11:11:03.296Z,11.50
2019-01-22T11:13:30.055Z,10.83
2019-01-22T11:15:56.796Z,11.03
2019-01-22T11:18:23.535Z,11.30
2019-01-22T11:20:49.993Z,12.93
2019-01-22T11:23:16.406Z,13.07
2019-01-22T11:25:43.683Z,11.43
2019-01-22T11:28:10.880Z,11.50
2019-01-22T11:30:37.300Z,12.50
2019-01-22T11:33:03.971Z,11.00
2019-01-22T11:35:30.712Z,11.53
2019-01-22T11:37:57.129Z,10.97
2019-01-22T11:40:34.358Z,10.90
2019-01-22T11:43:00.772Z,10.33
2019-01-22T11:45:27.246Z,12.33
2019-01-22T11:47:53.751Z,11.83
2019-01-22T11:50:20.667Z,12.30
2019-01-22T11:52:47.419Z,11.70
2019-01-22T11:55:13.859Z,11.50
2019-01-22T11:57:40.315Z,11.17
2019-01-22T12:00:19.637Z,10.63
2019-01-22T12:02:46.348Z,10.70
2019-01-22T12:05:12.763Z,11.00
2019-01-22T12:07:39.184Z,11.00
2019-01-22T12:10:07.797Z,11.37
2019-01-22T12:12:34.212Z,11.23
2019-01-22T12:15:00.632Z,11.07
2019-01-22T12:17:27.075Z,10.87
2019-01-22T12:19:53.727Z,11.40
2019-01-22T12:22:20.139Z,10.53
2019-01-22T12:24:46.599Z,10.80
2019-01-22T12:27:13.011Z,12.10
2019-01-22T12:29:39.424Z,11.33
2019-01-22T12:32:05.875Z,11.33
2019-01-22T12:34:32.332Z,10.07
2019-01-22T12:36:59.064Z,9.80
2019-01-22T12:39:25.479Z,10.20
2019-01-22T12:41:52.236Z,10.93
2019-01-22T12:44:18.977Z,11.37
2019-01-22T12:46:45.431Z,11.23
2019-01-22T12:49:12.153Z,10.60
2019-01-22T12:51:38.595Z,9.90
2019-01-22T12:54:05.045Z,10.43
2019-01-22T12:56:31.750Z,10.40
2019-01-22T12:58:58.299Z,10.00
2019-01-22T13:01:24.714Z,10.27
2019-01-22T13:03:51.455Z,10.50
2019-01-22T13:06:18.195Z,11.53
2019-01-22T13:08:44.843Z,10.87
2019-01-22T13:11:11.567Z,10.27
2019-01-22T13:13:38.112Z,10.43
2019-01-22T13:16:04.843Z,10.50
2019-01-22T13:18:31.583Z,10.93
2019-01-22T13:20:58.319Z,9.57
2019-01-22T13:23:24.779Z,11.70
2019-01-22T13:25:51.195Z,10.53
2019-01-22T13:28:17.613Z,10.10
2019-01-22T13:30:44.168Z,10.03
2019-01-22T13:33:10.577Z,9.87
2019-01-22T13:35:36.988Z,10.17
2019-01-22T13:38:03.759Z,9.67
2019-01-22T13:40:30.495Z,11.27
2019-01-22T13:42:56.917Z,11.07
2019-01-22T13:45:24.672Z,10.20
2019-01-22T13:47:52.359Z,10.90
2019-01-22T13:50:19.479Z,10.67
2019-01-22T13:52:45.926Z,9.27
2019-01-22T13:55:17.295Z,10.53
2019-01-22T13:57:43.712Z,10.10
2019-01-22T14:00:12.076Z,11.10
2019-01-22T14:02:38.575Z,9.77
2019-01-22T14:05:05.028Z,9.60
2019-01-22T14:07:31.695Z,10.30
2019-01-22T14:09:58.116Z,9.33
2019-01-22T14:12:24.561Z,9.97
2019-01-22T14:14:50.980Z,10.57
2019-01-22T14:17:17.423Z,9.10
2019-01-22T14:19:44.166Z,9.70
2019-01-22T14:22:10.581Z,10.97
2019-01-22T14:24:37.027Z,9.70
2019-01-22T14:27:03.772Z,9.23
2019-01-22T14:29:30.193Z,9.60
2019-01-22T14:31:56.648Z,9.70
2019-01-22T14:34:23.059Z,10.07
2019-01-22T14:36:49.477Z,10.00
2019-01-22T14:39:16.236Z,9.87
2019-01-22T14:41:42.648Z,10.70
2019-01-22T14:44:09.407Z,9.60
2019-01-22T14:46:36.147Z,9.37
2019-01-22T14:49:02.607Z,9.80
2019-01-22T14:51:29.435Z,9.83
2019-01-22T14:53:55.849Z,9.80
2019-01-22T14:56:22.593Z,10.00
2019-01-22T14:58:49.332Z,9.33
2019-01-22T15:01:16.076Z,9.73
2019-01-22T15:03:42.812Z,9.80
2019-01-22T15:06:09.552Z,9.20
2019-01-22T15:08:36.292Z,9.83
2019-01-22T15:11:02.703Z,9.70
2019-01-22T15:13:29.118Z,10.43
2019-01-22T15:15:55.572Z,10.20
2019-01-22T15:18:22.328Z,10.60
2019-01-22T15:20:48.740Z,10.03
2019-01-22T15:23:15.225Z,10.00
2019-01-22T15:25:41.928Z,9.80
2019-01-22T15:28:08.343Z,9.87
2019-01-22T15:30:34.754Z,10.00
2019-01-22T15:33:01.540Z,10.03
2019-01-22T15:35:27.952Z,10.40
2019-01-22T15:37:54.368Z,9.90
2019-01-22T15:40:22.571Z,9.60
2019-01-22T15:42:49.000Z,10.23
2019-01-22T15:45:15.450Z,9.10
2019-01-22T15:47:41.859Z,10.03
2019-01-22T15:50:10.072Z,9.47
2019-01-22T15:52:36.532Z,9.73
2019-01-22T15:55:04.858Z,9.53
2019-01-22T15:57:31.298Z,9.00
2019-01-22T15:59:57.742Z,9.90
2019-01-22T16:02:24.153Z,11.33
2019-01-22T16:04:50.573Z,9.70
2019-01-22T16:07:17.019Z,10.83
2019-01-22T16:09:43.429Z,9.43
2019-01-22T16:12:09.839Z,9.87
2019-01-22T16:14:36.287Z,10.20
2019-01-22T16:17:02.735Z,9.90
2019-01-22T16:19:29.153Z,10.67
2019-01-22T16:21:55.573Z,9.90
2019-01-22T16:24:22.020Z,10.27
2019-01-22T16:26:53.367Z,9.77
2019-01-22T16:29:17.053Z,10.97
2019-01-22T16:31:43.791Z,10.60
2019-01-22T16:34:10.220Z,10.90
2019-01-22T16:36:36.961Z,11.17
2019-01-22T16:39:04.872Z,11.00
2019-01-22T16:41:31.335Z,9.47
2019-01-22T16:43:57.999Z,10.37
2019-01-22T16:46:24.772Z,9.47
2019-01-22T16:48:51.480Z,10.50
2019-01-22T16:51:18.219Z,9.10
2019-01-22T16:53:44.635Z,8.70
2019-01-22T16:56:11.393Z,10.00
2019-01-22T16:58:37.809Z,9.40
2019-01-22T17:01:04.255Z,10.10
2019-01-22T17:03:30.667Z,9.53
2019-01-22T17:05:57.120Z,9.37
2019-01-22T17:08:23.536Z,10.00
2019-01-22T17:10:49.955Z,9.63
2019-01-22T17:13:16.407Z,11.10
2019-01-22T17:15:43.158Z,9.90
2019-01-22T17:18:09.896Z,12.33
2019-01-22T17:20:37.759Z,10.47
2019-01-22T17:23:04.180Z,11.27
2019-01-22T17:25:30.627Z,10.70
2019-01-22T17:27:57.043Z,12.10
2019-01-22T17:30:23.459Z,11.27
2019-01-22T17:32:51.823Z,19.57
2019-01-22T17:35:18.242Z,13.80
2019-01-22T17:37:45.036Z,14.73
2019-01-22T17:40:16.233Z,14.50
2019-01-22T17:42:40.563Z,14.07
2019-01-22T17:45:08.231Z,10.87
2019-01-22T17:47:34.641Z,11.13
2019-01-22T17:50:01.856Z,10.03
2019-01-22T17:52:28.299Z,12.10
2019-01-22T17:54:54.712Z,11.10
2019-01-22T17:57:21.204Z,12.17
2019-01-22T17:59:47.615Z,10.77
2019-01-22T18:02:14.027Z,10.23
2019-01-22T18:04:40.812Z,12.37
2019-01-22T18:07:07.547Z,10.87
2019-01-22T18:09:33.992Z,11.30
2019-01-22T18:12:00.464Z,10.53
2019-01-22T18:14:27.152Z,10.40
2019-01-22T18:16:53.896Z,11.30
2019-01-22T18:19:23.794Z,9.57
2019-01-22T18:21:48.651Z,11.60
2019-01-22T18:24:15.063Z,10.53
2019-01-22T18:26:41.532Z,9.50
2019-01-22T18:29:07.942Z,11.23
2019-01-22T18:31:34.382Z,11.43
2019-01-22T18:34:00.836Z,10.50
2019-01-22T18:36:27.251Z,9.63
2019-01-22T18:38:53.663Z,10.43
2019-01-22T18:41:20.114Z,9.90
2019-01-22T18:43:46.524Z,9.57
2019-01-22T18:46:12.980Z,10.40
2019-01-22T18:48:39.390Z,10.00
2019-01-22T18:51:06.095Z,9.53
2019-01-22T18:53:32.831Z,9.40
2019-01-22T18:55:59.244Z,8.97
2019-01-22T18:58:26.003Z,10.00
2019-01-22T19:00:52.459Z,9.20
2019-01-22T19:03:19.175Z,10.70
2019-01-22T19:05:45.915Z,10.00
2019-01-22T19:08:12.571Z,9.10
2019-01-22T19:10:38.988Z,11.60
2019-01-22T19:13:05.730Z,11.53
2019-01-22T19:15:32.144Z,14.60
2019-01-22T19:17:58.555Z,16.93
2019-01-22T19:20:25.043Z,17.30
2019-01-22T19:22:51.451Z,18.67
2019-01-22T19:25:22.300Z,20.37
2019-01-22T19:27:48.716Z,19.60
2019-01-22T19:30:17.307Z,18.57
2019-01-22T19:32:43.777Z,18.57
2019-01-22T19:35:10.198Z,18.77
2019-01-22T19:37:36.610Z,19.93
2019-01-22T19:40:08.301Z,15.97
2019-01-22T19:42:34.713Z,17.10
2019-01-22T19:45:01.224Z,15.40
2019-01-22T19:47:27.756Z,15.67
2019-01-22T19:49:54.195Z,14.07
2019-01-22T19:52:20.647Z,16.07
2019-01-22T19:54:47.375Z,14.17
2019-01-22T19:57:13.793Z,14.40
2019-01-22T19:59:40.257Z,15.70
2019-01-22T20:02:06.677Z,13.27
2019-01-22T20:04:33.092Z,12.80
2019-01-22T20:06:59.558Z,13.63
2019-01-22T20:09:26.359Z,12.63
2019-01-22T20:11:52.827Z,12.80
2019-01-22T20:14:19.251Z,11.30
2019-01-22T20:16:46.480Z,12.47
2019-01-22T20:19:14.185Z,12.87
2019-01-22T20:21:40.648Z,12.13
2019-01-22T20:24:07.058Z,13.53
2019-01-22T20:26:33.503Z,11.63
2019-01-22T20:28:59.920Z,12.27
2019-01-22T20:31:26.363Z,12.70
2019-01-22T20:33:52.783Z,16.10
2019-01-22T20:36:19.233Z,11.97
2019-01-22T20:38:45.904Z,11.27
2019-01-22T20:41:12.644Z,12.50
2019-01-22T20:43:39.091Z,12.30
2019-01-22T20:46:05.815Z,11.67
2019-01-22T20:48:32.227Z,10.93
2019-01-22T20:50:58.646Z,10.33
2019-01-22T20:53:25.096Z,13.03
2019-01-22T20:55:51.508Z,10.80
2019-01-22T20:58:18.286Z,10.10
2019-01-22T21:00:44.752Z,10.27
2019-01-22T21:03:11.163Z,11.80
2019-01-22T21:05:37.581Z,11.73
2019-01-22T21:08:04.321Z,14.73
2019-01-22T21:10:32.751Z,10.50
2019-01-22T21:12:59.165Z,10.40
2019-01-22T21:15:25.867Z,10.67
2019-01-22T21:17:52.288Z,8.90
2019-01-22T21:20:19.767Z,9.43
2019-01-22T21:22:46.180Z,13.03
2019-01-22T21:25:13.791Z,11.10
2019-01-22T21:27:40.240Z,11.70
2019-01-22T21:30:08.862Z,11.73
2019-01-22T21:32:35.609Z,10.17
2019-01-22T21:35:04.183Z,9.20
2019-01-22T21:37:30.595Z,11.03
2019-01-22T21:39:57.011Z,10.33
2019-01-22T21:42:23.792Z,11.00
2019-01-22T21:44:50.531Z,11.50
2019-01-22T21:47:17.191Z,9.70
2019-01-22T21:49:43.908Z,9.57
2019-01-22T21:52:10.350Z,10.87
2019-01-22T21:54:36.773Z,11.37
2019-01-22T21:57:03.511Z,12.23
2019-01-22T21:59:29.928Z,11.90
2019-01-22T22:01:56.685Z,14.63
2019-01-22T22:04:23.131Z,10.70
2019-01-22T22:06:49.852Z,11.50
2019-01-22T22:09:16.295Z,11.67
2019-01-22T22:11:42.707Z,10.60
2019-01-22T22:14:09.124Z,11.13
2019-01-22T22:16:35.671Z,9.43
2019-01-22T22:19:02.084Z,10.00
2019-01-22T22:21:28.865Z,8.67
2019-01-22T22:23:55.276Z,10.93
2019-01-22T22:26:21.683Z,10.53
2019-01-22T22:28:48.135Z,9.53
2019-01-22T22:31:14.794Z,10.03
2019-01-22T22:33:41.208Z,8.70
2019-01-22T22:36:07.647Z,12.17
2019-01-22T22:38:34.399Z,8.70
2019-01-22T22:41:00.817Z,9.63
2019-01-22T22:43:27.227Z,8.83
2019-01-22T22:45:53.668Z,10.60
2019-01-22T22:48:20.088Z,8.90
2019-01-22T22:50:46.508Z,9.97
2019-01-22T22:53:12.951Z,8.93
2019-01-22T22:55:39.365Z,9.33
2019-01-22T22:58:05.776Z,8.53
2019-01-22T23:00:44.459Z,8.80
2019-01-22T23:03:12.071Z,8.63
2019-01-22T23:05:38.737Z,8.63
2019-01-22T23:08:05.176Z,8.93
2019-01-22T23:10:31.593Z,8.43
2019-01-22T23:12:58.003Z,9.23
2019-01-22T23:15:24.449Z,8.13
2019-01-22T23:17:50.877Z,9.10
2019-01-22T23:20:17.352Z,9.10
2019-01-22T23:22:43.767Z,8.57
2019-01-22T23:25:10.220Z,9.50
2019-01-22T23:27:36.731Z,9.60
2019-01-22T23:30:08.064Z,8.90
2019-01-22T23:32:34.845Z,8.90
2019-01-22T23:35:01.255Z,9.27
2019-01-22T23:37:27.667Z,10.23
2019-01-22T23:39:54.116Z,9.50
2019-01-22T23:42:20.527Z,8.47
2019-01-22T23:44:46.971Z,9.27
2019-01-22T23:47:13.388Z,8.73
2019-01-22T23:49:40.075Z,9.37
2019-01-22T23:52:06.816Z,8.73
2019-01-22T23:54:33.227Z,9.87
2019-01-22T23:56:59.679Z,8.30
2019-01-22T23:59:26.088Z,9.90
